createdAt,value
2022-12-15T00:02:15.486Z,14.04
2022-12-15T00:05:22.744Z,14.03
2022-12-15T00:08:29.662Z,14.07
2022-12-15T00:11:36.664Z,14.09
2022-12-15T00:14:44.072Z,14.08
2022-12-15T00:17:51.509Z,14.08
2022-12-15T00:20:51.751Z,14.14
2022-12-15T00:23:58.610Z,14.08
2022-12-15T00:26:59.463Z,14.15
2022-12-15T00:30:06.752Z,14.02
2022-12-15T00:33:07.514Z,14.03
2022-12-15T00:36:14.733Z,13.98
2022-12-15T00:39:01.959Z,13.73
2022-12-15T00:41:52.846Z,13.69
2022-12-15T00:44:34.993Z,13.65
2022-12-15T00:47:23.792Z,13.74
2022-12-15T00:50:30.791Z,13.68
2022-12-15T00:53:31.306Z,13.66
2022-12-15T00:56:39.724Z,13.56
2022-12-15T00:59:40.122Z,13.46
2022-12-15T01:02:46.929Z,13.35
2022-12-15T01:05:53.689Z,13.42
2022-12-15T01:08:54.643Z,13.38
2022-12-15T01:12:01.673Z,13.36
2022-12-15T01:15:08.740Z,13.34
2022-12-15T01:18:09.319Z,13.43
2022-12-15T01:20:57.691Z,13.24
2022-12-15T01:23:47.025Z,13.30
2022-12-15T01:26:28.694Z,13.25
2022-12-15T01:29:18.101Z,13.25
2022-12-15T01:31:59.865Z,13.19
2022-12-15T01:34:42.157Z,13.36
2022-12-15T01:37:30.781Z,13.25
2022-12-15T01:40:36.418Z,13.13
2022-12-15T01:43:50.723Z,13.10
2022-12-15T01:46:45.713Z,13.08
2022-12-15T01:49:40.047Z,13.17
2022-12-15T01:52:23.028Z,13.02
2022-12-15T01:55:11.781Z,13.08
2022-12-15T01:57:56.008Z,12.89
2022-12-15T02:00:44.790Z,12.88
2022-12-15T02:03:27.178Z,12.92
2022-12-15T02:06:16.839Z,13.02
2022-12-15T02:09:04.081Z,13.13
2022-12-15T02:12:01.738Z,13.09
2022-12-15T02:15:19.725Z,13.13
2022-12-15T02:18:28.167Z,13.10
2022-12-15T02:21:28.719Z,13.23
2022-12-15T02:24:49.572Z,13.23
2022-12-15T02:27:46.986Z,13.35
2022-12-15T02:30:37.777Z,13.44
2022-12-15T02:33:32.430Z,13.41
2022-12-15T02:36:34.716Z,13.47
2022-12-15T02:39:20.032Z,13.54
2022-12-15T02:42:08.760Z,13.58
2022-12-15T02:45:00.440Z,13.77
2022-12-15T02:48:06.749Z,13.90
2022-12-15T02:51:23.004Z,13.95
2022-12-15T02:54:26.637Z,14.01
2022-12-15T02:57:19.042Z,14.17
2022-12-15T03:00:16.774Z,14.25
2022-12-15T03:03:04.674Z,14.33
2022-12-15T03:05:54.795Z,14.54
2022-12-15T03:08:36.952Z,14.72
2022-12-15T03:11:25.836Z,14.87
2022-12-15T03:14:08.049Z,14.94
2022-12-15T03:16:56.796Z,15.16
2022-12-15T03:19:45.844Z,15.30
2022-12-15T03:22:37.959Z,15.46
2022-12-15T03:25:20.631Z,15.71
2022-12-15T03:28:09.026Z,16.20
2022-12-15T03:30:50.884Z,16.59
2022-12-15T03:33:42.117Z,17.04
2022-12-15T03:36:23.780Z,17.63
2022-12-15T03:39:13.424Z,18.23
2022-12-15T03:41:55.768Z,18.66
2022-12-15T03:44:37.948Z,19.34
2022-12-15T03:47:26.701Z,19.70
2022-12-15T03:50:16.062Z,20.47
2022-12-15T03:53:02.715Z,21.07
2022-12-15T03:55:50.941Z,21.27
2022-12-15T03:58:33.151Z,21.40
2022-12-15T04:01:43.159Z,21.78
2022-12-15T04:04:24.769Z,21.86
2022-12-15T04:07:06.894Z,22.20
2022-12-15T04:09:55.709Z,22.44
2022-12-15T04:12:43.976Z,22.71
2022-12-15T04:15:27.029Z,22.81
2022-12-15T04:18:18.085Z,23.26
2022-12-15T04:21:00.788Z,23.21
2022-12-15T04:24:07.213Z,23.19
2022-12-15T04:27:07.616Z,23.08
2022-12-15T04:30:14.652Z,22.79
2022-12-15T04:33:16.483Z,23.19
2022-12-15T04:36:23.631Z,22.86
2022-12-15T04:39:25.226Z,23.04
2022-12-15T04:42:31.746Z,22.53
2022-12-15T04:45:40.645Z,22.56
2022-12-15T04:48:53.629Z,22.37
2022-12-15T04:52:00.562Z,21.98
2022-12-15T04:55:01.330Z,22.15
2022-12-15T04:58:08.594Z,22.21
2022-12-15T05:01:09.430Z,21.55
2022-12-15T05:04:16.677Z,21.58
2022-12-15T05:07:17.511Z,21.54
2022-12-15T05:10:24.599Z,21.55
2022-12-15T05:13:41.764Z,21.61
2022-12-15T05:16:49.490Z,21.63
2022-12-15T05:19:50.714Z,21.64
2022-12-15T05:22:57.611Z,21.64
2022-12-15T05:26:04.591Z,21.59
2022-12-15T05:29:11.489Z,21.61
2022-12-15T05:32:00.693Z,21.48
2022-12-15T05:34:49.730Z,21.99
2022-12-15T05:37:32.240Z,22.00
2022-12-15T05:40:20.750Z,21.91
2022-12-15T05:43:06.046Z,22.17
2022-12-15T05:45:54.653Z,22.63
2022-12-15T05:48:50.743Z,22.79
2022-12-15T05:51:33.037Z,23.63
2022-12-15T05:54:25.699Z,23.89
2022-12-15T05:57:07.981Z,23.52
2022-12-15T05:59:56.754Z,24.07
2022-12-15T06:02:47.004Z,24.23
2022-12-15T06:05:38.668Z,24.24
2022-12-15T06:08:27.006Z,24.25
2022-12-15T06:11:10.735Z,24.44
2022-12-15T06:13:59.295Z,24.65
2022-12-15T06:16:50.312Z,24.57
2022-12-15T06:19:39.072Z,24.41
2022-12-15T06:22:21.718Z,24.22
2022-12-15T06:25:03.881Z,24.39
2022-12-15T06:27:55.798Z,24.53
2022-12-15T06:30:40.852Z,24.53
2022-12-15T06:33:29.960Z,24.27
2022-12-15T06:36:25.209Z,24.28
2022-12-15T06:39:08.765Z,24.70
2022-12-15T06:41:56.954Z,24.29
2022-12-15T06:44:38.767Z,24.28
2022-12-15T06:47:33.509Z,24.73
2022-12-15T06:50:22.686Z,24.17
2022-12-15T06:53:07.024Z,24.53
2022-12-15T06:55:56.754Z,24.49
2022-12-15T06:58:39.030Z,24.51
2022-12-15T07:01:31.803Z,24.45
2022-12-15T07:04:14.051Z,24.85
2022-12-15T07:07:02.754Z,24.91
2022-12-15T07:09:51.617Z,24.38
2022-12-15T07:12:33.860Z,25.11
2022-12-15T07:15:22.574Z,24.67
2022-12-15T07:18:11.974Z,24.75
2022-12-15T07:20:54.743Z,24.22
2022-12-15T07:23:54.770Z,24.98
2022-12-15T07:26:38.723Z,25.04
2022-12-15T07:29:27.075Z,24.87
2022-12-15T07:32:09.656Z,25.25
2022-12-15T07:34:57.972Z,25.29
2022-12-15T07:37:40.758Z,25.14
2022-12-15T07:40:23.054Z,25.43
2022-12-15T07:43:11.740Z,25.06
2022-12-15T07:45:55.196Z,24.99
2022-12-15T07:48:43.689Z,24.78
2022-12-15T07:51:25.977Z,24.97
2022-12-15T07:54:14.695Z,25.01
2022-12-15T07:56:56.929Z,24.66
2022-12-15T07:59:45.741Z,24.98
2022-12-15T08:02:28.067Z,24.52
2022-12-15T08:05:16.748Z,24.49
2022-12-15T08:08:08.493Z,24.51
2022-12-15T08:10:54.691Z,24.52
2022-12-15T08:16:47.040Z,24.70
2022-12-15T08:19:35.845Z,24.52
2022-12-15T08:22:18.003Z,24.88
2022-12-15T08:25:06.654Z,24.72
2022-12-15T08:27:48.962Z,24.78
2022-12-15T08:30:37.751Z,24.87
2022-12-15T08:33:19.986Z,24.48
2022-12-15T08:36:10.703Z,24.34
2022-12-15T08:38:54.047Z,24.79
2022-12-15T08:41:42.710Z,24.72
2022-12-15T08:44:24.970Z,24.68
2022-12-15T08:47:13.644Z,24.45
2022-12-15T08:50:01.993Z,24.39
2022-12-15T08:53:13.789Z,24.80
2022-12-15T08:55:58.066Z,24.58
2022-12-15T08:58:40.724Z,24.68
2022-12-15T09:01:33.096Z,24.71
2022-12-15T09:04:15.850Z,24.42
2022-12-15T09:06:58.120Z,24.40
2022-12-15T09:09:46.842Z,24.57
2022-12-15T09:12:29.334Z,24.60
2022-12-15T09:15:18.751Z,24.68
2022-12-15T09:18:07.048Z,24.48
2022-12-15T09:20:48.700Z,24.17
2022-12-15T09:23:37.800Z,24.49
2022-12-15T09:26:22.043Z,24.56
2022-12-15T09:29:10.649Z,24.60
2022-12-15T09:31:52.986Z,24.52
2022-12-15T09:34:41.705Z,24.41
2022-12-15T09:37:23.948Z,24.41
2022-12-15T09:40:14.651Z,24.53
2022-12-15T09:43:32.948Z,24.49
2022-12-15T09:46:49.853Z,24.50
2022-12-15T09:49:56.140Z,24.36
2022-12-15T09:52:49.630Z,24.39
2022-12-15T09:55:33.918Z,24.35
2022-12-15T09:58:50.563Z,24.32
2022-12-15T10:01:57.001Z,24.20
2022-12-15T10:05:01.969Z,24.27
2022-12-15T10:07:50.475Z,24.18
2022-12-15T10:10:42.715Z,24.12
2022-12-15T10:13:42.975Z,24.10
2022-12-15T10:16:31.109Z,24.10
2022-12-15T10:19:36.942Z,24.01
2022-12-15T10:22:29.717Z,24.01
2022-12-15T10:25:30.190Z,23.94
2022-12-15T10:28:25.754Z,23.70
2022-12-15T10:31:36.977Z,23.95
2022-12-15T10:34:43.681Z,23.93
2022-12-15T10:37:25.912Z,23.75
2022-12-15T10:40:14.892Z,23.62
2022-12-15T10:42:56.919Z,23.57
2022-12-15T10:45:53.641Z,23.43
2022-12-15T10:48:48.714Z,23.60
2022-12-15T10:51:44.587Z,23.44
2022-12-15T10:54:33.187Z,23.24
2022-12-15T10:57:50.730Z,23.34
2022-12-15T11:00:34.633Z,23.24
2022-12-15T11:03:40.374Z,23.11
2022-12-15T11:06:42.769Z,23.04
2022-12-15T11:09:40.898Z,22.91
2022-12-15T11:12:51.820Z,22.81
2022-12-15T11:15:52.497Z,22.80
2022-12-15T11:18:48.731Z,22.71
2022-12-15T11:21:54.585Z,22.54
2022-12-15T11:24:49.648Z,22.37
2022-12-15T11:27:46.798Z,22.38
2022-12-15T11:30:33.562Z,22.16
2022-12-15T11:33:22.645Z,22.09
2022-12-15T11:36:17.740Z,21.93
2022-12-15T11:39:18.307Z,21.82
2022-12-15T11:42:31.602Z,21.67
2022-12-15T11:45:38.693Z,21.56
2022-12-15T11:48:23.960Z,21.38
2022-12-15T11:51:15.785Z,21.22
2022-12-15T11:54:10.071Z,21.08
2022-12-15T11:57:18.674Z,21.03
2022-12-15T12:00:20.386Z,20.85
2022-12-15T12:03:33.693Z,20.70
2022-12-15T12:06:54.021Z,20.64
2022-12-15T12:09:50.656Z,20.44
2022-12-15T12:12:42.652Z,20.40
2022-12-15T12:15:37.052Z,20.21
2022-12-15T12:18:46.732Z,20.15
2022-12-15T12:21:57.265Z,20.09
2022-12-15T12:24:48.968Z,19.97
2022-12-15T12:27:57.386Z,19.81
2022-12-15T12:31:00.685Z,19.81
2022-12-15T12:33:50.437Z,19.71
2022-12-15T12:36:39.667Z,19.63
2022-12-15T12:39:33.108Z,19.59
2022-12-15T12:42:23.675Z,19.53
2022-12-15T12:45:13.229Z,19.42
2022-12-15T12:48:10.718Z,19.38
2022-12-15T12:50:54.820Z,19.33
2022-12-15T12:53:48.683Z,19.24
2022-12-15T12:56:50.699Z,19.16
2022-12-15T12:59:48.911Z,19.09
2022-12-15T13:02:40.095Z,19.06
2022-12-15T13:05:43.622Z,19.00
2022-12-15T13:08:51.076Z,18.98
2022-12-15T13:12:27.589Z,19.03
2022-12-15T13:15:32.669Z,18.94
2022-12-15T13:18:36.924Z,18.93
2022-12-15T13:21:51.639Z,18.88
2022-12-15T13:24:43.119Z,18.92
2022-12-15T13:27:32.131Z,18.87
2022-12-15T13:30:17.015Z,18.89
2022-12-15T13:33:26.719Z,18.88
2022-12-15T13:36:08.971Z,18.76
2022-12-15T13:39:03.685Z,18.70
2022-12-15T13:45:05.721Z,18.56
2022-12-15T13:48:08.535Z,18.62
2022-12-15T13:51:29.684Z,18.52
2022-12-15T13:54:22.957Z,18.52
2022-12-15T13:57:17.676Z,18.45
2022-12-15T14:00:19.475Z,18.44
2022-12-15T14:03:19.781Z,18.46
2022-12-15T14:06:07.989Z,18.43
2022-12-15T14:08:56.594Z,18.46
2022-12-15T14:14:59.600Z,18.28
2022-12-15T14:17:51.686Z,18.25
2022-12-15T14:20:42.027Z,18.30
2022-12-15T14:24:04.069Z,18.18
2022-12-15T14:26:46.011Z,18.18
2022-12-15T14:29:39.720Z,18.17
2022-12-15T14:32:22.998Z,18.19
2022-12-15T14:35:11.660Z,18.19
2022-12-15T14:37:56.192Z,18.18
2022-12-15T14:40:45.725Z,18.16
2022-12-15T14:44:32.222Z,18.28
2022-12-15T14:46:54.894Z,18.27
2022-12-15T14:49:47.634Z,18.35
2022-12-15T14:52:48.811Z,18.42
2022-12-15T14:55:47.436Z,18.49
2022-12-15T14:58:48.669Z,18.61
2022-12-15T15:02:07.848Z,18.69
2022-12-15T15:03:16.506Z,18.47
2022-12-15T15:05:32.688Z,18.78
2022-12-15T15:08:18.998Z,18.68
2022-12-15T15:11:27.777Z,18.50
2022-12-15T15:14:21.011Z,18.47
2022-12-15T15:17:16.716Z,18.43
2022-12-15T15:20:10.911Z,18.42
2022-12-15T15:23:23.603Z,18.37
2022-12-15T15:26:22.618Z,18.30
2022-12-15T15:29:06.542Z,18.27
2022-12-15T15:31:55.732Z,18.27
2022-12-15T15:34:37.996Z,18.26
2022-12-15T15:37:31.635Z,18.28
2022-12-15T15:40:17.014Z,18.38
2022-12-15T15:42:59.738Z,18.54
2022-12-15T15:45:42.617Z,18.59
2022-12-15T15:48:38.745Z,18.60
2022-12-15T15:51:22.090Z,18.53
2022-12-15T15:54:16.662Z,18.53
2022-12-15T15:56:59.035Z,18.59
2022-12-15T15:59:49.698Z,18.62
2022-12-15T16:02:32.091Z,18.66
2022-12-15T16:05:21.630Z,18.65
2022-12-15T16:08:04.959Z,18.66
2022-12-15T16:10:55.622Z,18.54
2022-12-15T16:13:37.920Z,18.55
2022-12-15T16:16:32.818Z,18.49
2022-12-15T16:19:15.137Z,18.36
2022-12-15T16:22:03.700Z,18.31
2022-12-15T16:24:45.956Z,18.26
2022-12-15T16:27:35.815Z,18.30
2022-12-15T16:30:28.010Z,18.23
2022-12-15T16:33:17.691Z,18.11
2022-12-15T16:36:01.037Z,18.00
2022-12-15T16:38:51.639Z,18.00
2022-12-15T16:41:34.045Z,17.94
2022-12-15T16:44:22.911Z,17.84
2022-12-15T16:47:06.049Z,17.83
2022-12-15T16:49:54.662Z,17.76
2022-12-15T16:52:36.989Z,17.78
2022-12-15T16:55:43.579Z,17.65
2022-12-15T16:58:26.287Z,17.69
2022-12-15T17:01:16.897Z,17.75
2022-12-15T17:03:59.137Z,17.76
2022-12-15T17:06:47.608Z,17.84
2022-12-15T17:09:37.780Z,17.80
2022-12-15T17:12:26.650Z,17.68
2022-12-15T17:15:09.021Z,17.62
2022-12-15T17:17:58.600Z,17.61
2022-12-15T17:20:41.045Z,17.58
2022-12-15T17:23:32.938Z,17.71
2022-12-15T17:26:28.642Z,17.75
2022-12-15T17:29:22.203Z,17.78
2022-12-15T17:32:10.682Z,17.71
2022-12-15T17:34:53.987Z,17.73
2022-12-15T17:37:43.033Z,17.69
2022-12-15T17:40:25.717Z,17.68
2022-12-15T17:43:14.678Z,17.67
2022-12-15T17:46:04.149Z,17.65
2022-12-15T17:48:45.665Z,17.61
2022-12-15T17:51:40.555Z,17.53
2022-12-15T17:54:29.641Z,17.38
2022-12-15T17:57:12.081Z,17.35
2022-12-15T18:00:00.799Z,17.21
2022-12-15T18:02:49.857Z,17.21
2022-12-15T18:05:39.063Z,17.07
2022-12-15T18:08:41.713Z,17.09
2022-12-15T18:11:32.959Z,17.02
2022-12-15T18:14:23.620Z,16.91
2022-12-15T18:17:16.159Z,16.88
2022-12-15T18:20:04.844Z,16.80
2022-12-15T18:22:56.020Z,16.80
2022-12-15T18:25:39.487Z,16.77
2022-12-15T18:28:32.735Z,16.66
2022-12-15T18:31:27.277Z,16.62
2022-12-15T18:34:25.653Z,16.59
2022-12-15T18:37:08.115Z,16.52
2022-12-15T18:40:03.985Z,16.48
2022-12-15T18:42:46.998Z,16.47
2022-12-15T18:45:36.561Z,16.52
2022-12-15T18:48:45.494Z,16.54
2022-12-15T18:51:34.658Z,16.40
2022-12-15T18:54:27.996Z,16.45
2022-12-15T18:57:31.761Z,16.52
2022-12-15T19:00:25.572Z,16.51
2022-12-15T19:03:14.547Z,16.59
2022-12-15T19:06:11.719Z,16.49
2022-12-15T19:09:03.473Z,16.43
2022-12-15T19:12:06.778Z,16.49
2022-12-15T19:14:59.665Z,16.36
2022-12-15T19:18:00.536Z,16.28
2022-12-15T19:21:22.636Z,16.25
2022-12-15T19:24:04.874Z,16.22
2022-12-15T19:26:53.564Z,16.16
2022-12-15T19:29:35.940Z,16.20
2022-12-15T19:32:24.607Z,16.32
2022-12-15T19:35:06.987Z,16.30
2022-12-15T19:37:57.613Z,16.41
2022-12-15T19:40:41.951Z,16.59
2022-12-15T19:43:32.273Z,16.69
2022-12-15T19:46:18.145Z,16.66
2022-12-15T19:49:06.590Z,16.81
2022-12-15T19:51:55.564Z,16.81
2022-12-15T19:54:43.984Z,16.78
2022-12-15T19:57:28.565Z,16.70
2022-12-15T20:00:31.822Z,16.79
2022-12-15T20:03:20.546Z,16.61
2022-12-15T20:06:04.267Z,16.83
2022-12-15T20:08:57.519Z,16.92
2022-12-15T20:11:46.625Z,16.81
2022-12-15T20:14:29.084Z,16.82
2022-12-15T20:17:17.519Z,16.85
2022-12-15T20:20:00.010Z,16.62
2022-12-15T20:22:48.598Z,16.82
2022-12-15T20:25:35.352Z,16.72
2022-12-15T20:28:28.645Z,16.74
2022-12-15T20:31:10.930Z,16.80
2022-12-15T20:33:59.569Z,16.75
2022-12-15T20:36:41.980Z,16.58
2022-12-15T20:39:38.530Z,16.54
2022-12-15T20:42:31.510Z,16.52
2022-12-15T20:45:26.946Z,16.38
2022-12-15T20:48:10.968Z,16.26
2022-12-15T20:51:01.837Z,16.44
2022-12-15T20:53:46.551Z,16.43
2022-12-15T20:56:29.867Z,16.15
2022-12-15T20:59:18.521Z,16.11
2022-12-15T21:02:07.835Z,15.80
2022-12-15T21:04:49.873Z,16.01
2022-12-15T21:07:38.600Z,16.01
2022-12-15T21:10:29.523Z,16.20
2022-12-15T21:13:27.371Z,16.25
2022-12-15T21:16:10.474Z,16.16
2022-12-15T21:22:04.626Z,16.09
2022-12-15T21:24:53.846Z,15.92
2022-12-15T21:27:36.638Z,16.04
2022-12-15T21:30:22.819Z,16.04
2022-12-15T21:33:11.451Z,15.65
2022-12-15T21:35:59.951Z,16.05
2022-12-15T21:38:47.640Z,16.08
2022-12-15T21:41:29.849Z,15.97
2022-12-15T21:44:18.645Z,15.96
2022-12-15T21:47:01.007Z,16.05
2022-12-15T21:49:49.583Z,16.05
2022-12-15T21:52:39.589Z,15.93
2022-12-15T21:55:33.554Z,16.14
2022-12-15T21:58:25.441Z,16.23
2022-12-15T22:01:15.682Z,16.23
2022-12-15T22:04:08.826Z,16.12
2022-12-15T22:06:51.641Z,16.06
2022-12-15T22:09:33.770Z,16.11
2022-12-15T22:12:34.496Z,16.10
2022-12-15T22:15:28.679Z,16.06
2022-12-15T22:18:19.597Z,16.01
2022-12-15T22:21:01.769Z,15.99
2022-12-15T22:23:50.542Z,15.87
2022-12-15T22:26:40.536Z,15.83
2022-12-15T22:29:32.868Z,15.81
2022-12-15T22:32:22.578Z,15.87
2022-12-15T22:35:04.838Z,15.90
2022-12-15T22:37:55.259Z,15.89
2022-12-15T22:40:37.855Z,15.79
2022-12-15T22:43:33.650Z,15.81
2022-12-15T22:46:19.997Z,15.79
2022-12-15T22:49:08.489Z,15.83
2022-12-15T22:51:50.927Z,15.79
2022-12-15T22:54:45.505Z,15.77
2022-12-15T22:57:45.848Z,15.76
2022-12-15T23:00:34.564Z,15.70
2022-12-15T23:03:25.838Z,15.66
2022-12-15T23:06:07.966Z,15.57
2022-12-15T23:08:59.599Z,15.50
2022-12-15T23:11:47.854Z,15.45
2022-12-15T23:14:49.540Z,15.36
2022-12-15T23:17:31.736Z,15.35
2022-12-15T23:20:21.438Z,15.43
2022-12-15T23:23:04.405Z,15.42
2022-12-15T23:25:54.506Z,15.27
2022-12-15T23:28:37.496Z,15.36
2022-12-15T23:31:26.658Z,15.21
2022-12-15T23:34:16.593Z,15.14
2022-12-15T23:37:05.608Z,15.10
2022-12-15T23:39:54.480Z,15.08
2022-12-15T23:42:36.916Z,15.01
2022-12-15T23:45:25.513Z,14.99
2022-12-15T23:48:08.698Z,15.14
2022-12-15T23:50:57.516Z,15.11
2022-12-15T23:53:40.887Z,14.96
2022-12-15T23:56:32.468Z,14.91
2022-12-15T23:59:21.621Z,14.96
